powered by Meteolive.it
Dati meteo   Attuali  Passati Ogni 3 ore 7 Giorni 15 Giorni Avvisi Meteo Mappe meteo
Milano / Linate, Italy
Alba: 4:35 AM UTC1
Tramonto: 8:14 PM UTC1
 Lat: 45.42N, Lon: 9.27E
ICAO Usato: LIML
Condizioni Meteo Attuali Aggiornate: 25.06.2017 alle 10:20 LT
Coperto
Coperto
Coperto
N/D
Temp: 20°C
Umidita': 88%
Direz/Vel. Vento: variabile 04 KTS raffiche
Pressione: 1012 hPa
Punto di rugiada: 18°C
Temperatura percepita: 21°C
Visibilitą: >10 KM (ottima)
Temperatura percepita in
presenza di vento (Wind Chill)
:
20°C
T. max (ultime 24 ore): 26°C
T. min (ultime 24 ore): 19°C


METAR ORIGINALE
LIML 250620Z VRB04KT 9999 BKN020 SCT050 20/18 Q1012 NOSIG